sensor_id;sensor_type;location;lat;lon;timestamp;temperature;humidity
15926;DHT22;8062;53.882;10.642;2024-02-26T00:00:18;1.20;99.90
15926;DHT22;8062;53.882;10.642;2024-02-26T00:01:38;1.20;99.90
15926;DHT22;8062;53.882;10.642;2024-02-26T00:02:57;1.20;99.90
15926;DHT22;8062;53.882;10.642;2024-02-26T00:04:17;1.30;99.90
15926;DHT22;8062;53.882;10.642;2024-02-26T00:05:36;1.20;99.90
15926;DHT22;8062;53.882;10.642;2024-02-26T00:06:58;1.20;99.90
15926;DHT22;8062;53.882;10.642;2024-02-26T00:08:17;1.20;99.90
15926;DHT22;8062;53.882;10.642;2024-02-26T00:09:37;1.20;99.90
15926;DHT22;8062;53.882;10.642;2024-02-26T00:10:56;1.20;99.90
15926;DHT22;8062;53.882;10.642;2024-02-26T00:12:16;1.20;99.90
15926;DHT22;8062;53.882;10.642;2024-02-26T00:13:36;1.20;99.90
15926;DHT22;8062;53.882;10.642;2024-02-26T00:14:55;1.10;99.90
15926;DHT22;8062;53.882;10.642;2024-02-26T00:16:17;1.10;99.90
15926;DHT22;8062;53.882;10.642;2024-02-26T00:17:37;1.00;99.90
15926;DHT22;8062;53.882;10.642;2024-02-26T00:18:56;0.90;99.90
15926;DHT22;8062;53.882;10.642;2024-02-26T00:20:15;0.90;99.90
15926;DHT22;8062;53.882;10.642;2024-02-26T00:21:35;0.90;99.90
15926;DHT22;8062;53.882;10.642;2024-02-26T00:22:54;0.90;99.90
15926;DHT22;8062;53.882;10.642;2024-02-26T00:24:14;0.90;99.90
15926;DHT22;8062;53.882;10.642;2024-02-26T00:25:33;0.90;99.90
15926;DHT22;8062;53.882;10.642;2024-02-26T00:26:52;0.80;99.90
15926;DHT22;8062;53.882;10.642;2024-02-26T00:28:13;0.80;99.90
15926;DHT22;8062;53.882;10.642;2024-02-26T00:29:33;0.80;99.90
15926;DHT22;8062;53.882;10.642;2024-02-26T00:30:52;0.80;99.90
15926;DHT22;8062;53.882;10.642;2024-02-26T00:32:15;0.70;99.90
15926;DHT22;8062;53.882;10.642;2024-02-26T00:33:34;0.70;99.90
15926;DHT22;8062;53.882;10.642;2024-02-26T00:34:54;0.70;99.90
15926;DHT22;8062;53.882;10.642;2024-02-26T00:36:14;0.70;99.90
15926;DHT22;8062;53.882;10.642;2024-02-26T00:37:33;0.70;99.90
15926;DHT22;8062;53.882;10.642;2024-02-26T00:38:53;0.60;99.90
15926;DHT22;8062;53.882;10.642;2024-02-26T00:40:12;0.50;99.90
15926;DHT22;8062;53.882;10.642;2024-02-26T00:41:31;0.50;99.90
15926;DHT22;8062;53.882;10.642;2024-02-26T00:42:51;0.50;99.90
15926;DHT22;8062;53.882;10.642;2024-02-26T00:44:10;0.50;99.90
15926;DHT22;8062;53.882;10.642;2024-02-26T00:45:30;0.50;99.90
15926;DHT22;8062;53.882;10.642;2024-02-26T00:46:51;0.50;99.90
15926;DHT22;8062;53.882;10.642;2024-02-26T00:48:11;0.50;99.90
15926;DHT22;8062;53.882;10.642;2024-02-26T00:49:30;0.50;99.90
15926;DHT22;8062;53.882;10.642;2024-02-26T00:50:49;0.60;99.90
15926;DHT22;8062;53.882;10.642;2024-02-26T00:52:09;0.60;99.90
15926;DHT22;8062;53.882;10.642;2024-02-26T00:53:28;0.60;99.90
15926;DHT22;8062;53.882;10.642;2024-02-26T00:54:48;0.70;99.90
15926;DHT22;8062;53.882;10.642;2024-02-26T00:56:08;0.70;99.90
15926;DHT22;8062;53.882;10.642;2024-02-26T00:57:27;0.70;99.90
15926;DHT22;8062;53.882;10.642;2024-02-26T00:58:47;0.70;99.90
15926;DHT22;8062;53.882;10.642;2024-02-26T01:00:07;0.70;99.90
15926;DHT22;8062;53.882;10.642;2024-02-26T01:01:28;0.70;99.90
15926;DHT22;8062;53.882;10.642;2024-02-26T01:02:48;0.70;99.90
15926;DHT22;8062;53.882;10.642;2024-02-26T01:04:07;0.70;99.90
15926;DHT22;8062;53.882;10.642;2024-02-26T01:05:26;0.80;99.90
15926;DHT22;8062;53.882;10.642;2024-02-26T01:06:46;0.80;99.90
15926;DHT22;8062;53.882;10.642;2024-02-26T01:08:06;0.80;99.90
15926;DHT22;8062;53.882;10.642;2024-02-26T01:09:25;0.80;99.90
15926;DHT22;8062;53.882;10.642;2024-02-26T01:10:45;0.80;99.90
15926;DHT22;8062;53.882;10.642;2024-02-26T01:12:04;0.70;99.90
15926;DHT22;8062;53.882;10.642;2024-02-26T01:13:24;0.60;99.90
15926;DHT22;8062;53.882;10.642;2024-02-26T01:14:44;0.60;99.90
15926;DHT22;8062;53.882;10.642;2024-02-26T01:16:04;0.60;99.90
15926;DHT22;8062;53.882;10.642;2024-02-26T01:17:23;0.60;99.90
15926;DHT22;8062;53.882;10.642;2024-02-26T01:18:43;0.60;99.90
15926;DHT22;8062;53.882;10.642;2024-02-26T01:20:03;0.60;99.90
15926;DHT22;8062;53.882;10.642;2024-02-26T01:21:23;0.60;99.90
15926;DHT22;8062;53.882;10.642;2024-02-26T01:22:43;0.50;99.90
15926;DHT22;8062;53.882;10.642;2024-02-26T01:24:03;0.60;99.90
15926;DHT22;8062;53.882;10.642;2024-02-26T01:25:22;0.60;99.90
15926;DHT22;8062;53.882;10.642;2024-02-26T01:26:42;0.50;99.90
15926;DHT22;8062;53.882;10.642;2024-02-26T01:28:01;0.40;99.90
15926;DHT22;8062;53.882;10.642;2024-02-26T01:29:21;0.40;99.90
15926;DHT22;8062;53.882;10.642;2024-02-26T01:30:40;0.40;99.90
15926;DHT22;8062;53.882;10.642;2024-02-26T01:31:59;0.40;99.90
15926;DHT22;8062;53.882;10.642;2024-02-26T01:33:19;0.40;99.90
15926;DHT22;8062;53.882;10.642;2024-02-26T01:34:39;0.40;99.90
15926;DHT22;8062;53.882;10.642;2024-02-26T01:35:58;0.40;99.90
15926;DHT22;8062;53.882;10.642;2024-02-26T01:37:20;0.40;99.90
15926;DHT22;8062;53.882;10.642;2024-02-26T01:38:39;0.40;99.90
15926;DHT22;8062;53.882;10.642;2024-02-26T01:39:59;0.40;99.90
15926;DHT22;8062;53.882;10.642;2024-02-26T01:41:18;0.30;99.90
15926;DHT22;8062;53.882;10.642;2024-02-26T01:42:39;0.30;99.90
15926;DHT22;8062;53.882;10.642;2024-02-26T01:43:58;0.20;99.90
15926;DHT22;8062;53.882;10.642;2024-02-26T01:45:18;0.30;99.90
15926;DHT22;8062;53.882;10.642;2024-02-26T01:46:41;0.20;99.90
15926;DHT22;8062;53.882;10.642;2024-02-26T01:48:00;0.30;99.90
15926;DHT22;8062;53.882;10.642;2024-02-26T01:49:20;0.30;99.90
15926;DHT22;8062;53.882;10.642;2024-02-26T01:50:40;0.20;99.90
15926;DHT22;8062;53.882;10.642;2024-02-26T01:52:00;0.20;99.90
15926;DHT22;8062;53.882;10.642;2024-02-26T01:53:21;0.30;99.90
15926;DHT22;8062;53.882;10.642;2024-02-26T01:54:40;0.30;99.90
15926;DHT22;8062;53.882;10.642;2024-02-26T01:56:02;0.30;99.90
15926;DHT22;8062;53.882;10.642;2024-02-26T01:57:22;0.20;99.90
15926;DHT22;8062;53.882;10.642;2024-02-26T01:58:42;0.20;99.90
15926;DHT22;8062;53.882;10.642;2024-02-26T02:00:02;0.20;99.90
15926;DHT22;8062;53.882;10.642;2024-02-26T02:01:25;0.20;99.90
15926;DHT22;8062;53.882;10.642;2024-02-26T02:02:46;0.10;99.90
15926;DHT22;8062;53.882;10.642;2024-02-26T02:04:07;0.10;99.90
15926;DHT22;8062;53.882;10.642;2024-02-26T02:05:26;0.10;99.90
15926;DHT22;8062;53.882;10.642;2024-02-26T02:06:46;0.10;99.90
15926;DHT22;8062;53.882;10.642;2024-02-26T02:08:06;0.10;99.90
15926;DHT22;8062;53.882;10.642;2024-02-26T02:09:27;0.10;99.90
15926;DHT22;8062;53.882;10.642;2024-02-26T02:10:48;0.00;99.90
15926;DHT22;8062;53.882;10.642;2024-02-26T02:12:08;-0.10;99.90
15926;DHT22;8062;53.882;10.642;2024-02-26T02:13:28;0.00;99.90
15926;DHT22;8062;53.882;10.642;2024-02-26T02:14:48;0.00;99.90
15926;DHT22;8062;53.882;10.642;2024-02-26T02:16:08;0.00;99.90
15926;DHT22;8062;53.882;10.642;2024-02-26T02:17:28;-0.10;99.90
15926;DHT22;8062;53.882;10.642;2024-02-26T02:18:47;-0.10;99.90
15926;DHT22;8062;53.882;10.642;2024-02-26T02:20:15;-0.10;99.90
15926;DHT22;8062;53.882;10.642;2024-02-26T02:21:36;-0.10;99.90
15926;DHT22;8062;53.882;10.642;2024-02-26T02:22:55;-0.10;99.90
15926;DHT22;8062;53.882;10.642;2024-02-26T02:24:15;-0.10;99.90
15926;DHT22;8062;53.882;10.642;2024-02-26T02:25:34;-0.10;99.90
15926;DHT22;8062;53.882;10.642;2024-02-26T02:26:53;-0.10;99.90
15926;DHT22;8062;53.882;10.642;2024-02-26T02:28:13;-0.10;99.90
15926;DHT22;8062;53.882;10.642;2024-02-26T02:29:32;-0.10;99.90
15926;DHT22;8062;53.882;10.642;2024-02-26T02:30:52;-0.10;99.90
15926;DHT22;8062;53.882;10.642;2024-02-26T02:32:11;-0.20;99.90
15926;DHT22;8062;53.882;10.642;2024-02-26T02:33:31;-0.20;99.90
15926;DHT22;8062;53.882;10.642;2024-02-26T02:34:51;-0.20;99.90
15926;DHT22;8062;53.882;10.642;2024-02-26T02:36:10;-0.20;99.90
15926;DHT22;8062;53.882;10.642;2024-02-26T02:37:30;-0.20;99.90
15926;DHT22;8062;53.882;10.642;2024-02-26T02:38:50;-0.20;99.90
15926;DHT22;8062;53.882;10.642;2024-02-26T02:40:10;-0.20;99.90
15926;DHT22;8062;53.882;10.642;2024-02-26T02:41:30;-0.20;99.90
15926;DHT22;8062;53.882;10.642;2024-02-26T02:42:49;-0.30;99.90
15926;DHT22;8062;53.882;10.642;2024-02-26T02:44:08;-0.30;99.90
15926;DHT22;8062;53.882;10.642;2024-02-26T02:45:28;-0.30;99.90
15926;DHT22;8062;53.882;10.642;2024-02-26T02:46:48;-0.20;99.90
15926;DHT22;8062;53.882;10.642;2024-02-26T02:48:08;-0.20;99.90
15926;DHT22;8062;53.882;10.642;2024-02-26T02:49:27;-0.20;99.90
15926;DHT22;8062;53.882;10.642;2024-02-26T02:50:46;-0.20;99.90
15926;DHT22;8062;53.882;10.642;2024-02-26T02:52:06;-0.20;99.90
15926;DHT22;8062;53.882;10.642;2024-02-26T02:53:26;-0.20;99.90
15926;DHT22;8062;53.882;10.642;2024-02-26T02:54:45;-0.20;99.90
15926;DHT22;8062;53.882;10.642;2024-02-26T02:56:06;-0.20;99.90
15926;DHT22;8062;53.882;10.642;2024-02-26T02:57:25;-0.10;99.90
15926;DHT22;8062;53.882;10.642;2024-02-26T02:58:45;-0.10;99.90
15926;DHT22;8062;53.882;10.642;2024-02-26T03:00:04;-0.10;99.90
15926;DHT22;8062;53.882;10.642;2024-02-26T03:01:24;-0.10;99.90
15926;DHT22;8062;53.882;10.642;2024-02-26T03:02:44;-0.10;99.90
15926;DHT22;8062;53.882;10.642;2024-02-26T03:04:04;-0.10;99.90
15926;DHT22;8062;53.882;10.642;2024-02-26T03:05:24;-0.10;99.90
15926;DHT22;8062;53.882;10.642;2024-02-26T03:06:43;-0.10;99.90
15926;DHT22;8062;53.882;10.642;2024-02-26T03:08:03;-0.10;99.90
15926;DHT22;8062;53.882;10.642;2024-02-26T03:09:23;-0.10;99.90
15926;DHT22;8062;53.882;10.642;2024-02-26T03:10:43;-0.10;99.90
15926;DHT22;8062;53.882;10.642;2024-02-26T03:12:02;-0.20;99.90
15926;DHT22;8062;53.882;10.642;2024-02-26T03:13:22;-0.20;99.90
15926;DHT22;8062;53.882;10.642;2024-02-26T03:14:41;-0.20;99.90
15926;DHT22;8062;53.882;10.642;2024-02-26T03:16:05;-0.20;99.90
15926;DHT22;8062;53.882;10.642;2024-02-26T03:17:25;-0.20;99.90
15926;DHT22;8062;53.882;10.642;2024-02-26T03:18:44;-0.20;99.90
15926;DHT22;8062;53.882;10.642;2024-02-26T03:20:04;-0.20;99.90
15926;DHT22;8062;53.882;10.642;2024-02-26T03:21:25;-0.20;99.90
15926;DHT22;8062;53.882;10.642;2024-02-26T03:22:45;-0.30;99.90
15926;DHT22;8062;53.882;10.642;2024-02-26T03:24:05;-0.30;99.90
15926;DHT22;8062;53.882;10.642;2024-02-26T03:25:24;-0.40;99.90
15926;DHT22;8062;53.882;10.642;2024-02-26T03:26:44;-0.40;99.90
15926;DHT22;8062;53.882;10.642;2024-02-26T03:28:03;-0.40;99.90
15926;DHT22;8062;53.882;10.642;2024-02-26T03:29:23;-0.40;99.90
15926;DHT22;8062;53.882;10.642;2024-02-26T03:30:43;-0.40;99.90
15926;DHT22;8062;53.882;10.642;2024-02-26T03:32:03;-0.40;99.90
15926;DHT22;8062;53.882;10.642;2024-02-26T03:33:23;-0.40;99.90
15926;DHT22;8062;53.882;10.642;2024-02-26T03:34:42;-0.40;99.90
15926;DHT22;8062;53.882;10.642;2024-02-26T03:36:01;-0.40;99.90
15926;DHT22;8062;53.882;10.642;2024-02-26T03:37:21;-0.40;99.90
15926;DHT22;8062;53.882;10.642;2024-02-26T03:38:41;-0.40;99.90
15926;DHT22;8062;53.882;10.642;2024-02-26T03:40:00;-0.40;99.90
15926;DHT22;8062;53.882;10.642;2024-02-26T03:41:20;-0.40;99.90
15926;DHT22;8062;53.882;10.642;2024-02-26T03:42:39;-0.40;99.90
15926;DHT22;8062;53.882;10.642;2024-02-26T03:43:59;-0.30;99.90
15926;DHT22;8062;53.882;10.642;2024-02-26T03:45:19;-0.40;99.90
15926;DHT22;8062;53.882;10.642;2024-02-26T03:46:39;-0.30;99.90
15926;DHT22;8062;53.882;10.642;2024-02-26T03:47:59;-0.40;99.90
15926;DHT22;8062;53.882;10.642;2024-02-26T03:49:18;-0.40;99.90
15926;DHT22;8062;53.882;10.642;2024-02-26T03:50:38;-0.50;99.90
15926;DHT22;8062;53.882;10.642;2024-02-26T03:51:58;-0.50;99.90
15926;DHT22;8062;53.882;10.642;2024-02-26T03:53:17;-0.50;99.90
15926;DHT22;8062;53.882;10.642;2024-02-26T03:54:37;-0.50;99.90
15926;DHT22;8062;53.882;10.642;2024-02-26T03:55:57;-0.50;99.90
15926;DHT22;8062;53.882;10.642;2024-02-26T03:57:16;-0.40;99.90
15926;DHT22;8062;53.882;10.642;2024-02-26T03:58:36;-0.50;99.90
15926;DHT22;8062;53.882;10.642;2024-02-26T03:59:56;-0.50;99.90
15926;DHT22;8062;53.882;10.642;2024-02-26T04:01:15;-0.50;99.90
15926;DHT22;8062;53.882;10.642;2024-02-26T04:02:35;-0.50;99.90
15926;DHT22;8062;53.882;10.642;2024-02-26T04:03:54;-0.40;99.90
15926;DHT22;8062;53.882;10.642;2024-02-26T04:05:14;-0.30;99.90
15926;DHT22;8062;53.882;10.642;2024-02-26T04:06:33;-0.40;99.90
15926;DHT22;8062;53.882;10.642;2024-02-26T04:07:53;-0.40;99.90
15926;DHT22;8062;53.882;10.642;2024-02-26T04:09:15;-0.40;99.90
15926;DHT22;8062;53.882;10.642;2024-02-26T04:10:35;-0.40;99.90
15926;DHT22;8062;53.882;10.642;2024-02-26T04:11:57;-0.40;99.90
15926;DHT22;8062;53.882;10.642;2024-02-26T04:13:17;-0.40;99.90
15926;DHT22;8062;53.882;10.642;2024-02-26T04:14:37;-0.50;99.90
15926;DHT22;8062;53.882;10.642;2024-02-26T04:15:56;-0.50;99.90
15926;DHT22;8062;53.882;10.642;2024-02-26T04:17:17;-0.50;99.90
15926;DHT22;8062;53.882;10.642;2024-02-26T04:18:37;-0.50;99.90
15926;DHT22;8062;53.882;10.642;2024-02-26T04:19:56;-0.60;99.90
15926;DHT22;8062;53.882;10.642;2024-02-26T04:21:15;-0.50;99.90
15926;DHT22;8062;53.882;10.642;2024-02-26T04:22:35;-0.50;99.90
15926;DHT22;8062;53.882;10.642;2024-02-26T04:23:54;-0.50;99.90
15926;DHT22;8062;53.882;10.642;2024-02-26T04:25:20;-0.60;99.90
15926;DHT22;8062;53.882;10.642;2024-02-26T04:26:39;-0.60;99.90
15926;DHT22;8062;53.882;10.642;2024-02-26T04:27:59;-0.60;99.90
15926;DHT22;8062;53.882;10.642;2024-02-26T04:29:18;-0.60;99.90
15926;DHT22;8062;53.882;10.642;2024-02-26T04:30:38;-0.60;99.90
15926;DHT22;8062;53.882;10.642;2024-02-26T04:31:58;-0.60;99.90
15926;DHT22;8062;53.882;10.642;2024-02-26T04:33:17;-0.60;99.90
15926;DHT22;8062;53.882;10.642;2024-02-26T04:34:36;-0.60;99.90
15926;DHT22;8062;53.882;10.642;2024-02-26T04:35:56;-0.60;99.90
15926;DHT22;8062;53.882;10.642;2024-02-26T04:37:15;-0.60;99.90
15926;DHT22;8062;53.882;10.642;2024-02-26T04:38:35;-0.60;99.90
15926;DHT22;8062;53.882;10.642;2024-02-26T04:39:54;-0.70;99.90
15926;DHT22;8062;53.882;10.642;2024-02-26T04:41:14;-0.60;99.90
15926;DHT22;8062;53.882;10.642;2024-02-26T04:42:33;-0.60;99.90
15926;DHT22;8062;53.882;10.642;2024-02-26T04:43:53;-0.60;99.90
15926;DHT22;8062;53.882;10.642;2024-02-26T04:45:13;-0.60;99.90
15926;DHT22;8062;53.882;10.642;2024-02-26T04:46:32;-0.60;99.90
15926;DHT22;8062;53.882;10.642;2024-02-26T04:47:51;-0.60;99.90
15926;DHT22;8062;53.882;10.642;2024-02-26T04:49:11;-0.50;99.90
15926;DHT22;8062;53.882;10.642;2024-02-26T04:50:30;-0.60;99.90
15926;DHT22;8062;53.882;10.642;2024-02-26T04:51:49;-0.50;99.90
15926;DHT22;8062;53.882;10.642;2024-02-26T04:53:09;-0.50;99.90
15926;DHT22;8062;53.882;10.642;2024-02-26T04:54:28;-0.60;99.90
15926;DHT22;8062;53.882;10.642;2024-02-26T04:55:48;-0.70;99.90
15926;DHT22;8062;53.882;10.642;2024-02-26T04:57:07;-0.70;99.90
15926;DHT22;8062;53.882;10.642;2024-02-26T04:58:27;-0.70;99.90
15926;DHT22;8062;53.882;10.642;2024-02-26T04:59:46;-0.70;99.90
15926;DHT22;8062;53.882;10.642;2024-02-26T05:01:06;-0.70;99.90
15926;DHT22;8062;53.882;10.642;2024-02-26T05:02:25;-0.70;99.90
15926;DHT22;8062;53.882;10.642;2024-02-26T05:03:44;-0.70;99.90
15926;DHT22;8062;53.882;10.642;2024-02-26T05:05:06;-0.80;99.90
15926;DHT22;8062;53.882;10.642;2024-02-26T05:06:25;-0.80;99.90
15926;DHT22;8062;53.882;10.642;2024-02-26T05:07:45;-0.80;99.90
15926;DHT22;8062;53.882;10.642;2024-02-26T05:09:04;-0.80;99.90
15926;DHT22;8062;53.882;10.642;2024-02-26T05:10:24;-0.80;99.90
15926;DHT22;8062;53.882;10.642;2024-02-26T05:11:43;-0.80;99.90
15926;DHT22;8062;53.882;10.642;2024-02-26T05:13:03;-0.80;99.90
15926;DHT22;8062;53.882;10.642;2024-02-26T05:14:23;-0.80;99.90
15926;DHT22;8062;53.882;10.642;2024-02-26T05:15:42;-0.80;99.90
15926;DHT22;8062;53.882;10.642;2024-02-26T05:17:02;-0.80;99.90
15926;DHT22;8062;53.882;10.642;2024-02-26T05:18:22;-0.80;99.90
15926;DHT22;8062;53.882;10.642;2024-02-26T05:19:42;-0.80;99.90
15926;DHT22;8062;53.882;10.642;2024-02-26T05:21:02;-0.80;99.90
15926;DHT22;8062;53.882;10.642;2024-02-26T05:22:22;-0.80;99.90
15926;DHT22;8062;53.882;10.642;2024-02-26T05:23:42;-0.80;99.90
15926;DHT22;8062;53.882;10.642;2024-02-26T05:25:03;-0.80;99.90
15926;DHT22;8062;53.882;10.642;2024-02-26T05:26:23;-0.80;99.90
15926;DHT22;8062;53.882;10.642;2024-02-26T05:27:43;-0.80;99.90
15926;DHT22;8062;53.882;10.642;2024-02-26T05:29:03;-0.70;99.90
15926;DHT22;8062;53.882;10.642;2024-02-26T05:30:22;-0.70;99.90
15926;DHT22;8062;53.882;10.642;2024-02-26T05:31:42;-0.70;99.90
15926;DHT22;8062;53.882;10.642;2024-02-26T05:33:02;-0.70;99.90
15926;DHT22;8062;53.882;10.642;2024-02-26T05:34:22;-0.80;99.90
15926;DHT22;8062;53.882;10.642;2024-02-26T05:35:41;-0.80;99.90
15926;DHT22;8062;53.882;10.642;2024-02-26T05:37:00;-0.80;99.90
15926;DHT22;8062;53.882;10.642;2024-02-26T05:38:20;-0.70;99.90
15926;DHT22;8062;53.882;10.642;2024-02-26T05:39:40;-0.70;99.90
15926;DHT22;8062;53.882;10.642;2024-02-26T05:40:59;-0.70;99.90
15926;DHT22;8062;53.882;10.642;2024-02-26T05:42:19;-0.70;99.90
15926;DHT22;8062;53.882;10.642;2024-02-26T05:43:38;-0.70;99.90
15926;DHT22;8062;53.882;10.642;2024-02-26T05:44:58;-0.70;99.90
15926;DHT22;8062;53.882;10.642;2024-02-26T05:46:19;-0.70;99.90
15926;DHT22;8062;53.882;10.642;2024-02-26T05:47:38;-0.70;99.90
15926;DHT22;8062;53.882;10.642;2024-02-26T05:49:04;-0.70;99.90
15926;DHT22;8062;53.882;10.642;2024-02-26T05:50:23;-0.60;99.90
15926;DHT22;8062;53.882;10.642;2024-02-26T05:51:43;-0.60;99.90
15926;DHT22;8062;53.882;10.642;2024-02-26T05:53:02;-0.60;99.90
15926;DHT22;8062;53.882;10.642;2024-02-26T05:54:22;-0.50;99.90
15926;DHT22;8062;53.882;10.642;2024-02-26T05:55:41;-0.50;99.90
15926;DHT22;8062;53.882;10.642;2024-02-26T05:57:01;-0.50;99.90
15926;DHT22;8062;53.882;10.642;2024-02-26T05:58:21;-0.50;99.90
15926;DHT22;8062;53.882;10.642;2024-02-26T05:59:41;-0.50;99.90
15926;DHT22;8062;53.882;10.642;2024-02-26T06:01:00;-0.50;99.90
15926;DHT22;8062;53.882;10.642;2024-02-26T06:02:20;-0.50;99.90
15926;DHT22;8062;53.882;10.642;2024-02-26T06:03:39;-0.50;99.90
15926;DHT22;8062;53.882;10.642;2024-02-26T06:04:59;-0.50;99.90
15926;DHT22;8062;53.882;10.642;2024-02-26T06:06:18;-0.50;99.90
15926;DHT22;8062;53.882;10.642;2024-02-26T06:07:38;-0.50;99.90
15926;DHT22;8062;53.882;10.642;2024-02-26T06:08:57;-0.50;99.90
15926;DHT22;8062;53.882;10.642;2024-02-26T06:10:18;-0.50;99.90
15926;DHT22;8062;53.882;10.642;2024-02-26T06:11:40;-0.50;99.90
15926;DHT22;8062;53.882;10.642;2024-02-26T06:12:59;-0.50;99.90
15926;DHT22;8062;53.882;10.642;2024-02-26T06:14:19;-0.50;99.90
15926;DHT22;8062;53.882;10.642;2024-02-26T06:15:39;-0.50;99.90
15926;DHT22;8062;53.882;10.642;2024-02-26T06:16:58;-0.50;99.90
15926;DHT22;8062;53.882;10.642;2024-02-26T06:18:18;-0.50;99.90
15926;DHT22;8062;53.882;10.642;2024-02-26T06:19:37;-0.50;99.90
15926;DHT22;8062;53.882;10.642;2024-02-26T06:20:57;-0.40;99.90
15926;DHT22;8062;53.882;10.642;2024-02-26T06:22:16;-0.40;99.90
15926;DHT22;8062;53.882;10.642;2024-02-26T06:23:37;-0.40;99.90
15926;DHT22;8062;53.882;10.642;2024-02-26T06:24:57;-0.40;99.90
15926;DHT22;8062;53.882;10.642;2024-02-26T06:26:17;-0.40;99.90
15926;DHT22;8062;53.882;10.642;2024-02-26T06:27:36;-0.40;99.90
15926;DHT22;8062;53.882;10.642;2024-02-26T06:28:56;-0.40;99.90
15926;DHT22;8062;53.882;10.642;2024-02-26T06:30:15;-0.40;99.90
15926;DHT22;8062;53.882;10.642;2024-02-26T06:31:34;-0.40;99.90
15926;DHT22;8062;53.882;10.642;2024-02-26T06:32:54;-0.30;99.90
15926;DHT22;8062;53.882;10.642;2024-02-26T06:34:13;-0.30;99.90
15926;DHT22;8062;53.882;10.642;2024-02-26T06:35:33;-0.30;99.90
15926;DHT22;8062;53.882;10.642;2024-02-26T06:36:52;-0.30;99.90
15926;DHT22;8062;53.882;10.642;2024-02-26T06:38:12;-0.30;99.90
15926;DHT22;8062;53.882;10.642;2024-02-26T06:39:33;-0.30;99.90
15926;DHT22;8062;53.882;10.642;2024-02-26T06:40:53;-0.30;99.90
15926;DHT22;8062;53.882;10.642;2024-02-26T06:42:12;-0.20;99.90
15926;DHT22;8062;53.882;10.642;2024-02-26T06:43:32;-0.20;99.90
15926;DHT22;8062;53.882;10.642;2024-02-26T06:44:51;-0.20;99.90
15926;DHT22;8062;53.882;10.642;2024-02-26T06:46:11;-0.10;99.90
15926;DHT22;8062;53.882;10.642;2024-02-26T06:47:30;-0.10;99.90
15926;DHT22;8062;53.882;10.642;2024-02-26T06:48:51;0.00;99.90
15926;DHT22;8062;53.882;10.642;2024-02-26T06:50:12;0.10;99.90
15926;DHT22;8062;53.882;10.642;2024-02-26T06:51:33;0.10;99.90
15926;DHT22;8062;53.882;10.642;2024-02-26T06:52:52;0.20;99.90
15926;DHT22;8062;53.882;10.642;2024-02-26T06:54:11;0.10;99.90
15926;DHT22;8062;53.882;10.642;2024-02-26T06:55:31;0.20;99.90
15926;DHT22;8062;53.882;10.642;2024-02-26T06:56:50;0.20;99.90
15926;DHT22;8062;53.882;10.642;2024-02-26T06:58:10;0.20;99.90
15926;DHT22;8062;53.882;10.642;2024-02-26T06:59:30;0.20;99.90
15926;DHT22;8062;53.882;10.642;2024-02-26T07:00:49;0.20;99.90
15926;DHT22;8062;53.882;10.642;2024-02-26T07:02:09;0.20;99.90
15926;DHT22;8062;53.882;10.642;2024-02-26T07:03:28;0.20;99.90
15926;DHT22;8062;53.882;10.642;2024-02-26T07:04:49;0.20;99.90
15926;DHT22;8062;53.882;10.642;2024-02-26T07:06:08;0.20;99.90
15926;DHT22;8062;53.882;10.642;2024-02-26T07:07:28;0.20;99.90
15926;DHT22;8062;53.882;10.642;2024-02-26T07:08:47;0.20;99.90
15926;DHT22;8062;53.882;10.642;2024-02-26T07:10:07;0.20;99.90
15926;DHT22;8062;53.882;10.642;2024-02-26T07:11:27;0.20;99.90
15926;DHT22;8062;53.882;10.642;2024-02-26T07:12:46;0.30;99.90
15926;DHT22;8062;53.882;10.642;2024-02-26T07:14:06;0.20;99.90
15926;DHT22;8062;53.882;10.642;2024-02-26T07:15:25;0.30;99.90
15926;DHT22;8062;53.882;10.642;2024-02-26T07:16:45;0.30;99.90
15926;DHT22;8062;53.882;10.642;2024-02-26T07:18:04;0.30;99.90
15926;DHT22;8062;53.882;10.642;2024-02-26T07:19:24;0.30;99.90
15926;DHT22;8062;53.882;10.642;2024-02-26T07:20:43;0.30;99.90
15926;DHT22;8062;53.882;10.642;2024-02-26T07:22:03;0.30;99.90
15926;DHT22;8062;53.882;10.642;2024-02-26T07:23:22;0.30;99.90
15926;DHT22;8062;53.882;10.642;2024-02-26T07:24:42;0.40;99.90
15926;DHT22;8062;53.882;10.642;2024-02-26T07:26:01;0.40;99.90
15926;DHT22;8062;53.882;10.642;2024-02-26T07:27:21;0.40;99.90
15926;DHT22;8062;53.882;10.642;2024-02-26T07:28:40;0.40;99.90
15926;DHT22;8062;53.882;10.642;2024-02-26T07:30:00;0.40;99.90
15926;DHT22;8062;53.882;10.642;2024-02-26T07:31:20;0.40;99.90
15926;DHT22;8062;53.882;10.642;2024-02-26T07:32:39;0.40;99.90
15926;DHT22;8062;53.882;10.642;2024-02-26T07:33:59;0.40;99.90
15926;DHT22;8062;53.882;10.642;2024-02-26T07:35:19;0.40;99.90
15926;DHT22;8062;53.882;10.642;2024-02-26T07:36:38;0.50;99.90
15926;DHT22;8062;53.882;10.642;2024-02-26T07:37:57;0.50;99.90
15926;DHT22;8062;53.882;10.642;2024-02-26T07:39:17;0.50;99.90
15926;DHT22;8062;53.882;10.642;2024-02-26T07:40:36;0.50;99.90
15926;DHT22;8062;53.882;10.642;2024-02-26T07:41:56;0.50;99.90
15926;DHT22;8062;53.882;10.642;2024-02-26T07:43:15;0.60;99.90
15926;DHT22;8062;53.882;10.642;2024-02-26T07:44:36;0.60;99.90
15926;DHT22;8062;53.882;10.642;2024-02-26T07:45:55;0.60;99.90
15926;DHT22;8062;53.882;10.642;2024-02-26T07:47:15;0.60;99.90
15926;DHT22;8062;53.882;10.642;2024-02-26T07:48:34;0.60;99.90
15926;DHT22;8062;53.882;10.642;2024-02-26T07:49:54;0.60;99.90
15926;DHT22;8062;53.882;10.642;2024-02-26T07:51:14;0.60;99.90
15926;DHT22;8062;53.882;10.642;2024-02-26T07:52:33;0.60;99.90
15926;DHT22;8062;53.882;10.642;2024-02-26T07:53:53;0.60;99.90
15926;DHT22;8062;53.882;10.642;2024-02-26T07:55:12;0.60;99.90
15926;DHT22;8062;53.882;10.642;2024-02-26T07:56:32;0.70;99.90
15926;DHT22;8062;53.882;10.642;2024-02-26T07:57:51;0.70;99.90
15926;DHT22;8062;53.882;10.642;2024-02-26T07:59:11;0.80;99.90
15926;DHT22;8062;53.882;10.642;2024-02-26T08:00:30;0.80;99.90
15926;DHT22;8062;53.882;10.642;2024-02-26T08:01:53;0.90;99.90
15926;DHT22;8062;53.882;10.642;2024-02-26T08:03:12;0.90;99.90
15926;DHT22;8062;53.882;10.642;2024-02-26T08:04:35;1.00;99.90
15926;DHT22;8062;53.882;10.642;2024-02-26T08:05:54;1.10;99.90
15926;DHT22;8062;53.882;10.642;2024-02-26T08:07:14;1.10;99.90
15926;DHT22;8062;53.882;10.642;2024-02-26T08:08:33;1.10;99.90
15926;DHT22;8062;53.882;10.642;2024-02-26T08:09:53;1.20;99.90
15926;DHT22;8062;53.882;10.642;2024-02-26T08:11:14;1.20;99.90
15926;DHT22;8062;53.882;10.642;2024-02-26T08:12:34;1.30;99.90
15926;DHT22;8062;53.882;10.642;2024-02-26T08:13:54;1.30;99.90
15926;DHT22;8062;53.882;10.642;2024-02-26T08:15:13;1.30;99.90
15926;DHT22;8062;53.882;10.642;2024-02-26T08:16:33;1.30;99.90
15926;DHT22;8062;53.882;10.642;2024-02-26T08:17:53;1.40;99.90
15926;DHT22;8062;53.882;10.642;2024-02-26T08:19:13;1.40;99.90
15926;DHT22;8062;53.882;10.642;2024-02-26T08:20:34;1.50;99.90
15926;DHT22;8062;53.882;10.642;2024-02-26T08:21:53;1.50;99.90
15926;DHT22;8062;53.882;10.642;2024-02-26T08:23:12;1.50;99.90
15926;DHT22;8062;53.882;10.642;2024-02-26T08:24:32;1.60;99.90
15926;DHT22;8062;53.882;10.642;2024-02-26T08:25:51;1.60;99.90
15926;DHT22;8062;53.882;10.642;2024-02-26T08:27:11;1.70;99.90